createdAt,value
2023-01-02T00:00:22.754Z,2.80
2023-01-02T00:02:50.206Z,2.67
2023-01-02T00:05:17.823Z,2.77
2023-01-02T00:07:45.210Z,3.00
2023-01-02T00:10:12.796Z,2.80
2023-01-02T00:12:40.160Z,3.20
2023-01-02T00:15:09.388Z,2.83
2023-01-02T00:17:36.700Z,2.85
2023-01-02T00:20:04.415Z,2.70
2023-01-02T00:22:31.845Z,3.13
2023-01-02T00:24:59.242Z,3.03
2023-01-02T00:27:26.915Z,2.40
2023-01-02T00:29:54.266Z,2.90
2023-01-02T00:32:22.951Z,2.90
2023-01-02T00:34:50.323Z,2.60
2023-01-02T00:37:17.687Z,2.63
2023-01-02T00:39:45.157Z,2.77
2023-01-02T00:42:12.545Z,2.70
2023-01-02T00:44:39.986Z,3.08
2023-01-02T00:47:07.333Z,2.37
2023-01-02T00:49:36.347Z,2.55
2023-01-02T00:52:03.679Z,2.20
2023-01-02T00:54:31.026Z,2.80
2023-01-02T00:56:58.340Z,2.90
2023-01-02T00:59:25.679Z,2.20
2023-01-02T01:01:53.141Z,2.40
2023-01-02T01:04:20.526Z,2.70
2023-01-02T01:06:49.199Z,2.50
2023-01-02T01:09:16.793Z,2.80
2023-01-02T01:11:44.100Z,2.37
2023-01-02T01:14:11.490Z,2.83
2023-01-02T01:16:38.892Z,2.50
2023-01-02T01:19:06.291Z,2.40
2023-01-02T01:21:33.620Z,2.38
2023-01-02T01:24:02.315Z,2.37
2023-01-02T01:26:29.849Z,2.57
2023-01-02T01:28:57.592Z,2.63
2023-01-02T01:31:25.268Z,2.83
2023-01-02T01:33:52.701Z,2.55
2023-01-02T01:36:21.307Z,2.33
2023-01-02T01:38:48.978Z,2.60
2023-01-02T01:41:18.680Z,3.03
2023-01-02T01:43:46.917Z,3.27
2023-01-02T01:46:19.856Z,2.80
2023-01-02T01:48:48.114Z,2.40
2023-01-02T01:51:19.810Z,2.15
2023-01-02T01:53:47.947Z,2.63
2023-01-02T01:56:15.433Z,2.70
2023-01-02T01:58:45.260Z,2.67
2023-01-02T02:01:13.618Z,2.83
2023-01-02T02:03:42.173Z,2.25
2023-01-02T02:06:09.559Z,2.17
2023-01-02T02:08:38.473Z,2.60
2023-01-02T02:11:06.738Z,2.53
2023-01-02T02:13:35.026Z,2.60
2023-01-02T02:16:11.797Z,2.30
2023-01-02T02:18:45.798Z,2.50
2023-01-02T02:21:20.857Z,2.20
2023-01-02T02:24:00.920Z,2.67
2023-01-02T02:26:38.970Z,2.60
2023-01-02T02:29:17.224Z,2.45
2023-01-02T02:31:49.163Z,2.30
2023-01-02T02:34:21.212Z,2.00
2023-01-02T02:36:53.477Z,2.60
2023-01-02T02:39:26.677Z,2.50
2023-01-02T02:41:56.458Z,2.33
2023-01-02T02:44:32.326Z,2.50
2023-01-02T02:47:03.210Z,2.30
2023-01-02T02:49:36.835Z,2.13
2023-01-02T02:52:08.392Z,2.47
2023-01-02T02:54:38.261Z,2.60
2023-01-02T02:57:07.328Z,2.10
2023-01-02T02:59:35.407Z,2.20
2023-01-02T03:02:04.712Z,2.50
2023-01-02T03:04:32.107Z,2.30
2023-01-02T03:07:04.695Z,2.10
2023-01-02T03:09:38.836Z,2.33
2023-01-02T03:12:11.291Z,2.30
2023-01-02T03:14:41.894Z,2.53
2023-01-02T03:17:18.468Z,2.37
2023-01-02T03:19:49.653Z,2.40
2023-01-02T03:22:19.687Z,2.23
2023-01-02T03:24:48.774Z,2.70
2023-01-02T03:27:18.115Z,2.17
2023-01-02T03:29:48.405Z,2.20
2023-01-02T03:32:19.972Z,2.30
2023-01-02T03:34:48.273Z,2.45
2023-01-02T03:37:18.259Z,2.42
2023-01-02T03:39:47.129Z,2.50
2023-01-02T03:42:17.327Z,2.30
2023-01-02T03:44:47.231Z,2.30
2023-01-02T03:47:20.314Z,2.70
2023-01-02T03:49:49.438Z,2.33
2023-01-02T03:52:21.080Z,2.40
2023-01-02T03:54:51.784Z,2.27
2023-01-02T03:57:23.180Z,3.05
2023-01-02T03:59:56.241Z,2.60
2023-01-02T04:02:27.346Z,2.15
2023-01-02T04:04:55.895Z,2.10
2023-01-02T04:07:27.259Z,2.00
2023-01-02T04:09:54.890Z,2.37
2023-01-02T04:12:24.090Z,2.30
2023-01-02T04:14:53.069Z,2.30
2023-01-02T04:17:21.759Z,2.50
2023-01-02T04:19:52.088Z,2.27
2023-01-02T04:22:21.637Z,2.20
2023-01-02T04:24:51.115Z,2.08
2023-01-02T04:27:21.535Z,2.45
2023-01-02T04:29:48.863Z,1.80
2023-01-02T04:32:18.740Z,2.20
2023-01-02T04:34:46.655Z,2.57
2023-01-02T04:37:27.940Z,2.60
2023-01-02T04:39:57.180Z,2.40
2023-01-02T04:42:24.515Z,2.60
2023-01-02T04:44:51.864Z,2.27
2023-01-02T04:47:21.921Z,2.20
2023-01-02T04:49:49.434Z,2.60
2023-01-02T04:52:16.772Z,2.22
2023-01-02T04:54:45.461Z,2.17
2023-01-02T04:57:12.790Z,2.20
2023-01-02T04:59:40.149Z,2.55
2023-01-02T05:02:07.650Z,1.92
2023-01-02T05:04:35.056Z,2.20
2023-01-02T05:07:02.971Z,2.05
2023-01-02T05:09:30.278Z,2.30
2023-01-02T05:11:58.942Z,2.45
2023-01-02T05:14:26.298Z,2.22
2023-01-02T05:16:53.662Z,2.20
2023-01-02T05:19:20.977Z,2.40
2023-01-02T05:22:06.136Z,2.30
2023-01-02T05:24:33.440Z,2.50
2023-01-02T05:27:02.096Z,2.35
2023-01-02T05:29:30.217Z,2.72
2023-01-02T05:31:57.522Z,1.92
2023-01-02T05:34:24.854Z,2.22
2023-01-02T05:36:52.185Z,2.80
2023-01-02T05:39:19.567Z,2.10
2023-01-02T05:41:46.898Z,2.40
2023-01-02T05:44:15.555Z,1.90
2023-01-02T05:46:42.965Z,2.53
2023-01-02T05:49:11.358Z,2.20
2023-01-02T05:51:38.948Z,2.00
2023-01-02T05:54:06.360Z,2.58
2023-01-02T05:56:33.734Z,2.20
2023-01-02T05:59:01.080Z,2.20
2023-01-02T06:01:30.323Z,2.45
2023-01-02T06:03:58.765Z,2.30
2023-01-02T06:06:26.929Z,2.30
2023-01-02T06:08:54.328Z,2.47
2023-01-02T06:11:21.672Z,2.47
2023-01-02T06:13:49.016Z,2.28
2023-01-02T06:16:16.349Z,2.75
2023-01-02T06:18:45.054Z,2.30
2023-01-02T06:21:13.379Z,2.50
2023-01-02T06:23:41.190Z,2.60
2023-01-02T06:26:09.767Z,2.13
2023-01-02T06:28:37.475Z,2.70
2023-01-02T06:31:05.853Z,2.17
2023-01-02T06:33:33.444Z,2.45
2023-01-02T06:36:03.038Z,2.63
2023-01-02T06:38:30.597Z,2.30
2023-01-02T06:40:58.727Z,2.20
2023-01-02T06:43:26.765Z,2.42
2023-01-02T06:45:54.308Z,2.00
2023-01-02T06:48:21.691Z,2.22
2023-01-02T06:50:49.004Z,2.25
2023-01-02T06:53:17.684Z,2.47
2023-01-02T06:55:51.420Z,2.23
2023-01-02T06:58:19.661Z,2.67
2023-01-02T07:00:47.208Z,2.40
2023-01-02T07:03:14.858Z,2.22
2023-01-02T07:05:42.206Z,2.33
2023-01-02T07:08:09.924Z,2.33
2023-01-02T07:10:38.687Z,2.40
2023-01-02T07:13:05.994Z,2.35
2023-01-02T07:15:33.535Z,2.63
2023-01-02T07:18:01.259Z,2.53
2023-01-02T07:20:28.633Z,2.50
2023-01-02T07:22:56.011Z,2.10
2023-01-02T07:25:23.573Z,2.47
2023-01-02T07:27:52.207Z,2.40
2023-01-02T07:30:19.529Z,2.50
2023-01-02T07:32:46.849Z,2.30
2023-01-02T07:35:14.193Z,2.37
2023-01-02T07:37:41.495Z,2.63
2023-01-02T07:40:09.342Z,2.83
2023-01-02T07:42:36.676Z,2.85
2023-01-02T07:45:05.854Z,2.37
2023-01-02T07:47:33.161Z,2.77
2023-01-02T07:50:00.724Z,2.40
2023-01-02T07:52:28.065Z,2.65
2023-01-02T07:54:55.386Z,2.17
2023-01-02T07:57:22.691Z,2.20
2023-01-02T07:59:50.131Z,2.42
2023-01-02T08:02:18.891Z,2.30
2023-01-02T08:04:46.268Z,2.35
2023-01-02T08:07:13.597Z,2.60
2023-01-02T08:09:40.928Z,2.10
2023-01-02T08:12:08.270Z,2.20
2023-01-02T08:14:35.731Z,2.25
2023-01-02T08:17:03.105Z,2.55
2023-01-02T08:19:31.778Z,3.45
2023-01-02T08:21:59.070Z,2.70
2023-01-02T08:24:26.387Z,2.17
2023-01-02T08:26:53.742Z,2.58
2023-01-02T08:29:21.105Z,2.38
2023-01-02T08:31:48.499Z,2.40
2023-01-02T08:34:15.946Z,2.50
2023-01-02T08:36:46.786Z,2.70
2023-01-02T08:39:14.130Z,2.57
2023-01-02T08:41:41.827Z,2.40
2023-01-02T08:44:09.463Z,2.17
2023-01-02T08:46:42.511Z,2.40
2023-01-02T08:49:10.740Z,2.20
2023-01-02T08:51:38.050Z,1.83
2023-01-02T08:54:06.736Z,2.67
2023-01-02T08:56:35.311Z,2.10
2023-01-02T08:59:03.292Z,2.50
2023-01-02T09:01:31.864Z,2.33
2023-01-02T09:03:59.335Z,2.40
2023-01-02T09:06:27.478Z,2.38
2023-01-02T09:08:55.399Z,2.17
2023-01-02T09:11:24.773Z,2.13
2023-01-02T09:13:52.196Z,2.30
2023-01-02T09:16:19.622Z,2.58
2023-01-02T09:18:47.035Z,2.60
2023-01-02T09:21:14.396Z,2.63
2023-01-02T09:23:41.879Z,2.45
2023-01-02T09:26:09.665Z,2.58
2023-01-02T09:28:38.359Z,2.72
2023-01-02T09:31:11.822Z,2.33
2023-01-02T09:33:39.785Z,2.72
2023-01-02T09:36:08.153Z,2.28
2023-01-02T09:38:35.717Z,2.42
2023-01-02T09:41:10.838Z,2.10
2023-01-02T09:43:40.524Z,2.42
2023-01-02T09:46:09.239Z,2.35
2023-01-02T09:48:37.312Z,2.00
2023-01-02T09:51:07.923Z,2.40
2023-01-02T09:53:35.580Z,2.17
2023-01-02T09:56:05.370Z,2.00
2023-01-02T09:58:37.181Z,2.45
2023-01-02T10:01:07.214Z,2.20
2023-01-02T10:03:38.008Z,2.47
2023-01-02T10:06:10.612Z,2.85
2023-01-02T10:08:41.827Z,1.90
2023-01-02T10:11:15.808Z,2.65
2023-01-02T10:14:17.413Z,2.08
2023-01-02T10:16:37.818Z,2.60
2023-01-02T10:19:07.855Z,2.38
2023-01-02T10:21:36.906Z,2.25
2023-01-02T10:24:06.501Z,2.30
2023-01-02T10:26:36.786Z,2.47
2023-01-02T10:29:08.549Z,2.45
2023-01-02T10:31:39.151Z,2.90
2023-01-02T10:34:09.071Z,2.42
2023-01-02T10:36:39.983Z,2.63
2023-01-02T10:39:08.653Z,2.60
2023-01-02T10:41:36.256Z,2.65
2023-01-02T10:44:05.342Z,2.08
2023-01-02T10:46:34.674Z,2.30
2023-01-02T10:49:03.613Z,2.60
2023-01-02T10:51:31.587Z,2.35
2023-01-02T10:54:02.835Z,2.22
2023-01-02T10:56:31.569Z,2.30
2023-01-02T10:58:59.420Z,2.15
2023-01-02T11:01:27.269Z,2.30
2023-01-02T11:06:52.295Z,2.33
2023-01-02T11:09:21.218Z,1.98
2023-01-02T11:11:49.919Z,2.20
2023-01-02T11:14:17.262Z,2.90
2023-01-02T11:16:44.619Z,2.38
2023-01-02T11:19:20.425Z,1.92
2023-01-02T11:21:49.984Z,2.20
2023-01-02T11:24:22.364Z,2.28
2023-01-02T11:26:50.985Z,2.10
2023-01-02T11:29:19.327Z,2.05
2023-01-02T11:31:51.065Z,2.15
2023-01-02T11:34:25.182Z,2.22
2023-01-02T11:37:02.549Z,2.00
2023-01-02T11:39:31.908Z,2.30
2023-01-02T11:42:20.096Z,2.42
2023-01-02T11:44:51.334Z,2.50
2023-01-02T11:47:19.451Z,2.33
2023-01-02T11:49:49.451Z,2.60
2023-01-02T11:52:17.564Z,2.20
2023-01-02T11:54:50.505Z,2.28
2023-01-02T11:57:20.375Z,2.55
2023-01-02T11:59:49.497Z,2.13
2023-01-02T12:02:20.652Z,2.17
2023-01-02T12:04:48.061Z,2.70
2023-01-02T12:07:24.317Z,2.28
2023-01-02T12:09:59.811Z,2.13
2023-01-02T12:12:34.211Z,2.15
2023-01-02T12:15:11.924Z,2.53
2023-01-02T12:17:44.322Z,2.30
2023-01-02T12:20:19.667Z,2.17
2023-01-02T12:22:59.669Z,2.45
2023-01-02T12:25:44.766Z,2.50
2023-01-02T12:28:19.702Z,2.38
2023-01-02T12:30:49.440Z,2.25
2023-01-02T12:33:24.480Z,2.22
2023-01-02T12:36:00.949Z,2.00
2023-01-02T12:38:33.554Z,2.60
2023-01-02T12:41:05.531Z,2.50
2023-01-02T12:43:40.307Z,2.42
2023-01-02T12:46:12.512Z,2.45
2023-01-02T12:48:46.284Z,3.00
2023-01-02T12:51:16.809Z,2.90
2023-01-02T12:54:18.652Z,2.10
2023-01-02T12:56:41.624Z,1.10
2023-01-02T12:59:16.385Z,0.90
2023-01-02T13:01:46.690Z,0.60
2023-01-02T13:04:17.839Z,0.60
2023-01-02T13:06:51.100Z,0.60
2023-01-02T13:09:23.575Z,0.60
2023-01-02T13:11:54.811Z,0.43
2023-01-02T13:14:25.894Z,0.43
2023-01-02T13:16:56.763Z,0.60
2023-01-02T13:19:26.981Z,0.60
2023-01-02T13:21:55.600Z,0.50
2023-01-02T13:24:25.219Z,0.50
2023-01-02T13:26:53.164Z,0.40
2023-01-02T13:29:21.867Z,0.60
2023-01-02T13:31:52.724Z,0.50
2023-01-02T13:34:23.261Z,0.75
2023-01-02T13:36:51.465Z,0.45
2023-01-02T13:39:20.234Z,0.50
2023-01-02T13:42:08.920Z,0.68
2023-01-02T13:44:37.873Z,0.90
2023-01-02T13:47:11.613Z,0.70
2023-01-02T13:49:39.048Z,0.70
2023-01-02T13:52:06.492Z,0.60
2023-01-02T13:54:37.429Z,0.65
2023-01-02T13:57:18.679Z,0.90
2023-01-02T13:59:58.053Z,0.98
2023-01-02T14:02:27.130Z,0.70
2023-01-02T14:04:54.585Z,0.97
2023-01-02T14:07:39.874Z,1.00
2023-01-02T14:10:17.482Z,0.80
2023-01-02T14:12:53.044Z,0.80
2023-01-02T14:15:22.752Z,1.43
2023-01-02T14:17:54.070Z,1.57
2023-01-02T14:20:26.145Z,1.20
2023-01-02T14:22:54.583Z,0.97
2023-01-02T14:25:24.192Z,0.80
2023-01-02T14:27:53.075Z,1.20
2023-01-02T14:30:23.617Z,0.73
2023-01-02T14:32:51.687Z,0.80
2023-01-02T14:35:29.528Z,0.80
2023-01-02T14:38:06.689Z,0.90
2023-01-02T14:40:36.038Z,0.60
2023-01-02T14:43:18.747Z,0.57
2023-01-02T14:45:48.144Z,0.70
2023-01-02T14:48:17.827Z,0.70
2023-01-02T14:50:47.021Z,0.70
2023-01-02T14:53:17.835Z,0.90
2023-01-02T14:55:46.426Z,0.70
2023-01-02T14:58:17.459Z,0.70
2023-01-02T15:00:46.325Z,0.63
2023-01-02T15:03:18.426Z,0.80
2023-01-02T15:05:49.750Z,1.00
2023-01-02T15:08:19.048Z,0.70
2023-01-02T15:10:56.468Z,0.93
2023-01-02T15:13:26.087Z,1.20
2023-01-02T15:15:55.935Z,1.30
2023-01-02T15:18:24.593Z,1.50
2023-01-02T15:20:54.094Z,1.23
2023-01-02T15:23:22.141Z,1.20
2023-01-02T15:25:49.465Z,1.20
2023-01-02T15:28:24.519Z,1.10
2023-01-02T15:30:58.646Z,1.00
2023-01-02T15:33:27.515Z,1.30
2023-01-02T15:35:57.383Z,1.13
2023-01-02T15:38:24.809Z,1.40
2023-01-02T15:40:52.228Z,1.57
2023-01-02T15:43:37.291Z,1.80
2023-01-02T15:46:05.391Z,2.50
2023-01-02T15:48:33.170Z,2.20
2023-01-02T15:51:01.966Z,2.23
2023-01-02T15:53:30.351Z,2.73
2023-01-02T15:55:58.279Z,2.40
2023-01-02T15:58:27.593Z,2.90
2023-01-02T16:01:10.767Z,2.60
2023-01-02T16:04:01.793Z,2.50
2023-01-02T16:06:29.586Z,2.57
2023-01-02T16:08:58.713Z,3.40
2023-01-02T16:11:26.625Z,2.93
2023-01-02T16:14:12.509Z,2.63
2023-01-02T16:16:44.547Z,1.80
2023-01-02T16:19:16.253Z,2.20
2023-01-02T16:21:44.993Z,1.90
2023-01-02T16:24:12.919Z,2.50
2023-01-02T16:26:41.743Z,2.50
2023-01-02T16:29:13.308Z,1.50
2023-01-02T16:31:51.278Z,2.10
2023-01-02T16:34:25.636Z,2.17
2023-01-02T16:37:07.852Z,2.13
2023-01-02T16:39:44.855Z,2.10
2023-01-02T16:42:29.702Z,2.37
2023-01-02T16:44:57.000Z,1.97
2023-01-02T16:47:25.509Z,2.70
2023-01-02T16:49:52.882Z,2.30
2023-01-02T16:52:20.241Z,2.63
2023-01-02T16:54:53.901Z,2.50
2023-01-02T16:57:22.671Z,2.17
2023-01-02T16:59:49.979Z,2.40
2023-01-02T17:02:17.349Z,2.17
2023-01-02T17:04:44.729Z,2.90
2023-01-02T17:07:14.556Z,2.80
2023-01-02T17:09:45.952Z,2.70
2023-01-02T17:12:14.636Z,2.40
2023-01-02T17:14:41.981Z,2.50
2023-01-02T17:17:09.363Z,2.13
2023-01-02T17:19:36.679Z,2.70
2023-01-02T17:22:04.055Z,2.87
2023-01-02T17:24:31.425Z,2.50
2023-01-02T17:26:58.783Z,2.77
2023-01-02T17:29:29.630Z,2.60
2023-01-02T17:31:57.061Z,2.73
2023-01-02T17:34:24.483Z,2.90
2023-01-02T17:36:53.058Z,2.80
2023-01-02T17:39:20.487Z,2.53
2023-01-02T17:41:49.325Z,2.97
2023-01-02T17:44:16.697Z,3.57
2023-01-02T17:49:32.803Z,2.97
2023-01-02T17:52:00.215Z,2.87
2023-01-02T17:54:27.547Z,2.93
2023-01-02T17:56:54.860Z,3.10
2023-01-02T17:59:22.227Z,3.00
2023-01-02T18:01:51.104Z,3.43
2023-01-02T18:04:18.817Z,4.00
2023-01-02T18:06:46.296Z,3.50
2023-01-02T18:09:13.704Z,5.10
2023-01-02T18:11:41.059Z,5.13
2023-01-02T18:14:13.522Z,4.03
2023-01-02T18:16:41.444Z,3.17
2023-01-02T18:19:13.955Z,4.53
2023-01-02T18:21:41.336Z,4.23
2023-01-02T18:24:12.414Z,4.17
2023-01-02T18:26:39.770Z,3.80
2023-01-02T18:29:11.811Z,2.50
2023-01-02T18:31:40.504Z,4.17
2023-01-02T18:34:45.892Z,4.57
2023-01-02T18:37:03.371Z,5.90
2023-01-02T18:39:42.555Z,5.80
2023-01-02T18:42:13.280Z,5.90
2023-01-02T18:44:41.328Z,5.57
2023-01-02T18:47:15.142Z,4.20
2023-01-02T18:49:45.437Z,3.33
2023-01-02T18:52:22.454Z,3.53
2023-01-02T18:54:52.730Z,3.60
2023-01-02T18:57:22.577Z,3.80
2023-01-02T18:59:50.508Z,4.03
2023-01-02T19:02:24.452Z,3.57
2023-01-02T19:04:53.388Z,5.73
2023-01-02T19:07:29.912Z,4.63
2023-01-02T19:09:57.883Z,3.27
2023-01-02T19:12:44.470Z,2.60
2023-01-02T19:15:34.213Z,2.77
2023-01-02T19:18:03.275Z,1.90
2023-01-02T19:20:32.080Z,2.03
2023-01-02T19:23:00.728Z,2.07
2023-01-02T19:25:28.111Z,3.90
2023-01-02T19:27:56.150Z,5.30
2023-01-02T19:30:29.397Z,3.60
2023-01-02T19:32:56.773Z,4.17
2023-01-02T19:35:53.415Z,3.60
2023-01-02T19:38:25.897Z,3.90
2023-01-02T19:40:53.210Z,3.97
2023-01-02T19:43:20.793Z,4.40
2023-01-02T19:45:48.580Z,4.00
2023-01-02T19:48:18.276Z,3.50
2023-01-02T19:50:46.147Z,3.47
2023-01-02T19:53:14.799Z,3.90
2023-01-02T19:55:42.144Z,3.60
2023-01-02T19:58:09.517Z,3.70
2023-01-02T20:00:36.866Z,3.90
2023-01-02T20:03:04.433Z,4.50
2023-01-02T20:05:31.952Z,4.93
2023-01-02T20:07:59.410Z,4.20
2023-01-02T20:10:28.050Z,3.30
2023-01-02T20:12:55.480Z,3.60
2023-01-02T20:15:24.396Z,4.03
2023-01-02T20:17:52.450Z,3.30
2023-01-02T20:20:20.613Z,3.40
2023-01-02T20:22:51.079Z,2.77
2023-01-02T20:25:20.954Z,2.33
2023-01-02T20:27:49.797Z,2.00
2023-01-02T20:30:23.704Z,1.90
2023-01-02T20:32:51.977Z,1.83
2023-01-02T20:35:19.369Z,1.97
2023-01-02T20:37:47.558Z,2.40
2023-01-02T20:40:14.995Z,2.10
2023-01-02T20:42:42.481Z,1.20
2023-01-02T20:45:11.886Z,1.43
2023-01-02T20:47:39.184Z,1.80
2023-01-02T20:50:06.801Z,1.83
2023-01-02T20:52:34.164Z,1.40
2023-01-02T20:55:01.549Z,1.70
2023-01-02T20:57:29.096Z,1.80
2023-01-02T20:59:56.494Z,1.93
2023-01-02T21:02:25.444Z,2.07
2023-01-02T21:04:53.119Z,2.10
2023-01-02T21:07:20.489Z,2.00
2023-01-02T21:09:47.821Z,2.67
2023-01-02T21:12:29.199Z,2.00
2023-01-02T21:14:56.598Z,1.57
2023-01-02T21:17:25.293Z,1.80
2023-01-02T21:19:52.633Z,1.57
2023-01-02T21:22:19.972Z,1.60
2023-01-02T21:24:47.319Z,1.50
2023-01-02T21:27:14.658Z,1.57
2023-01-02T21:29:41.992Z,1.60
2023-01-02T21:32:09.349Z,2.00
2023-01-02T21:34:38.025Z,1.77
2023-01-02T21:37:05.370Z,2.00
2023-01-02T21:39:32.807Z,1.70
2023-01-02T21:42:18.172Z,1.70
2023-01-02T21:44:47.089Z,1.93
2023-01-02T21:47:14.593Z,1.70
2023-01-02T21:49:43.400Z,1.70
2023-01-02T21:52:11.131Z,1.63
2023-01-02T21:54:38.561Z,1.70
2023-01-02T21:57:05.867Z,2.10
2023-01-02T21:59:33.430Z,1.67
2023-01-02T22:02:03.660Z,2.10
2023-01-02T22:04:31.707Z,2.00
2023-01-02T22:09:47.803Z,1.70
2023-01-02T22:12:15.476Z,1.87
2023-01-02T22:14:43.077Z,2.10
2023-01-02T22:17:11.200Z,1.80
2023-01-02T22:19:38.662Z,1.90
2023-01-02T22:22:07.580Z,1.70
2023-01-02T22:24:40.739Z,1.90
2023-01-02T22:27:14.360Z,1.93
2023-01-02T22:30:18.715Z,1.50
2023-01-02T22:32:31.985Z,1.57
2023-01-02T22:34:59.602Z,1.57
2023-01-02T22:37:28.240Z,1.63
2023-01-02T22:39:55.545Z,1.63
2023-01-02T22:45:29.890Z,1.57
2023-01-02T22:47:58.189Z,1.73
2023-01-02T22:50:27.067Z,1.57
2023-01-02T22:52:56.164Z,1.70
2023-01-02T22:55:24.464Z,1.30
2023-01-02T22:57:52.151Z,1.50
2023-01-02T23:00:22.225Z,1.37
2023-01-02T23:02:49.664Z,1.50
2023-01-02T23:05:17.852Z,1.67
2023-01-02T23:07:45.605Z,1.20
2023-01-02T23:10:14.345Z,1.20
2023-01-02T23:12:41.699Z,1.60
2023-01-02T23:15:12.041Z,1.53
2023-01-02T23:17:57.073Z,1.30
2023-01-02T23:20:25.276Z,1.23
2023-01-02T23:22:52.571Z,1.23
2023-01-02T23:25:21.389Z,1.30
2023-01-02T23:27:49.139Z,1.27
2023-01-02T23:30:16.687Z,1.40
2023-01-02T23:32:44.003Z,1.30
2023-01-02T23:35:11.415Z,1.20
2023-01-02T23:37:38.756Z,1.30
2023-01-02T23:40:06.614Z,1.10
2023-01-02T23:42:35.271Z,1.00
2023-01-02T23:45:03.014Z,1.00
2023-01-02T23:47:30.338Z,1.03
2023-01-02T23:49:57.660Z,1.20
2023-01-02T23:52:24.976Z,1.20
2023-01-02T23:54:52.295Z,1.10
2023-01-02T23:57:19.653Z,0.80
2023-01-02T23:59:48.336Z,1.30
